コモドロリバダビア の空港の天気 - METARとTAF

Comodoro Rivadavia Aerodrome ( SAVC / CRD ) - アルゼンチン チュブ州コモドロリバダビア
飛行場実況気象(Metar)
観測時間08/22 13:00 ART (08/22 16:00 UTC)
風向・風速西 6m/s
視程10km以上
天気現象
なし
気温16℃
湿度45%
気圧1024hPa
METARSAVC 221600Z 27011KT CAVOK 16/04 Q1024
過去の天気等 Google飛行場航空写真 Wunderground天気予報

過去48時間のMETAR

飛行場予報(TAF)
発表時間: 8/22 08:00 ART (8/22 11:00 UTC)
予報対象時間: 22日9時 ART ~ 23日9時 ART
風向・風速西 8m/s 瞬間風速 13m/s
視程10km以上
なし
22日14時 ART ~ 22日17時 ART に一時的に
風向・風速南西 3m/s
22日17時 ART ~ 22日21時 ART に一時的に
視程10km以上
全天の4割程度の雲 雲底高度 1220m
22日21時 ART ~ 22日23時 ART に徐々に
風向・風速北北東 5m/s
視程10km以上
なし
TAF SAVC 221100Z 2212/2312 27015G25KT CAVOK TX16/2218Z TN06/2311Z
TEMPO 2217/2220 22005KT
TEMPO 2220/2224 VR0B3KT 9999 SCT040
BECMG 2300/2302 02010KT CAVOK